Time;durP1;ratioP1;P1;durP2;ratioP2;P2;SDS_P1;SDS_P2;PMS_P1;PMS_P2;Temp;Humidity;BMP_temperature;BMP_pressure;BME280_temperature;BME280_humidity;BME280_pressure;Samples;Min_cycle;Max_cycle;Signal;HPM_P1;HPM_P2
2023/06/05 00:01:06;;;;;;;;;;;;;;;23.65;42.53;102348.06;5043179;28;19913;-71
2023/06/05 00:03:32;;;;;;;;;;;;;;;23.64;42.40;102346.34;5057505;28;19912;-71
2023/06/05 00:05:57;;;;;;;;;;;;;;;23.63;42.40;102347.38;5051852;28;19971;-71
2023/06/05 00:08:22;;;;;;;;;;;;;;;23.63;42.34;102346.53;5050189;28;19995;-71
2023/06/05 00:10:47;;;;;;;;;;;;;;;23.62;42.40;102350.25;5035053;28;19936;-71
2023/06/05 00:13:13;;;;;;;;;;;;;;;23.62;42.48;102350.25;5033002;28;19925;-71
2023/06/05 00:15:38;;;;;;;;;;;;;;;23.59;42.71;102348.72;5029807;28;19924;-71
2023/06/05 00:18:08;;;;;;;;;;;;;;;23.59;42.55;102343.28;5055052;28;19925;-71
2023/06/05 00:20:33;;;;;;;;;;;;;;;23.58;42.29;102348.88;5052698;28;19913;-71
2023/06/05 00:22:58;;;;;;;;;;;;;;;23.57;42.42;102349.88;5053685;28;19924;-72
2023/06/05 00:25:24;;;;;;;;;;;;;;;23.56;42.54;102343.59;5056337;28;19917;-72
2023/06/05 00:27:49;;;;;;;;;;;;;;;23.56;42.48;102348.19;5043318;28;19939;-72
2023/06/05 00:30:14;;;;;;;;;;;;;;;23.55;42.61;102341.06;5043738;28;20002;-71
2023/06/05 00:32:39;;;;;;;;;;;;;;;23.54;42.46;102344.81;5025723;28;20004;-71
2023/06/05 00:35:05;;;;;;;;;;;;;;;23.53;42.41;102338.50;5034527;28;19917;-71
2023/06/05 00:37:31;;;;;;;;;;;;;;;23.53;42.45;102341.22;5050072;28;19913;-71
2023/06/05 00:39:56;;;;;;;;;;;;;;;23.52;42.35;102342.22;5038064;28;19952;-71
2023/06/05 00:42:21;;;;;;;;;;;;;;;23.51;42.62;102340.53;5032549;28;19917;-70
2023/06/05 00:44:48;;;;;;;;;;;;;;;23.51;42.45;102342.41;5050170;28;19914;-71
2023/06/05 00:47:13;;;;;;;;;;;;;;;23.51;42.45;102342.41;5054060;28;19917;-71
2023/06/05 00:49:38;;;;;;;;;;;;;;;23.49;42.34;102337.16;5034929;28;19956;-71
2023/06/05 00:52:04;;;;;;;;;;;;;;;23.49;42.37;102341.72;5036414;28;19984;-71
2023/06/05 00:54:29;;;;;;;;;;;;;;;23.48;42.24;102338.16;5052872;28;19921;-71
2023/06/05 00:56:55;;;;;;;;;;;;;;;23.48;42.29;102340.84;5046129;28;19920;-71
2023/06/05 00:59:20;;;;;;;;;;;;;;;23.45;42.25;102342.06;5045040;28;19959;-71
2023/06/05 01:01:45;;;;;;;;;;;;;;;23.45;42.48;102342.06;5028797;28;19971;-71
2023/06/05 01:04:10;;;;;;;;;;;;;;;23.45;42.57;102335.78;5051758;28;19917;-71
2023/06/05 01:06:38;;;;;;;;;;;;;;;23.43;42.33;102335.94;5031700;28;19917;-70
2023/06/05 01:09:05;;;;;;;;;;;;;;;23.44;42.31;102350.34;5035016;28;19913;-71
2023/06/05 01:11:36;;;;;;;;;;;;;;;23.43;42.57;102348.66;5032293;28;19920;-70
2023/06/05 01:14:15;;;;;;;;;;;;;;;23.42;42.08;102349.69;5051122;28;19917;-71
2023/06/05 01:16:42;;;;;;;;;;;;;;;23.41;42.38;102347.97;5049036;28;19921;-70
2023/06/05 01:19:10;;;;;;;;;;;;;;;23.40;42.38;102347.09;5032923;28;19921;-71
2023/06/05 01:21:35;;;;;;;;;;;;;;;23.40;42.15;102348.97;5022963;28;19957;-72
2023/06/05 01:24:01;;;;;;;;;;;;;;;23.39;42.44;102337.25;5052512;28;19921;-71
2023/06/05 01:26:28;;;;;;;;;;;;;;;23.37;42.17;102339.31;5040165;28;19917;-71
2023/06/05 01:28:53;;;;;;;;;;;;;;;23.37;42.21;102342.03;5034274;28;19929;-70
2023/06/05 01:31:20;;;;;;;;;;;;;;;23.37;42.40;102331.16;5037437;28;20007;-71
2023/06/05 01:33:49;;;;;;;;;;;;;;;23.36;42.12;102337.63;5047073;28;19916;-71
2023/06/05 01:36:15;;;;;;;;;;;;;;;23.35;42.07;102332.34;5036793;28;20255;-70
2023/06/05 01:38:40;;;;;;;;;;;;;;;23.35;42.13;102316.06;5048829;28;19913;-71
2023/06/05 01:41:05;;;;;;;;;;;;;;;23.34;42.22;102314.34;5037356;28;19917;-71
2023/06/05 01:43:31;;;;;;;;;;;;;;;23.33;42.19;102316.22;5033475;28;20389;-72
2023/06/05 01:45:58;;;;;;;;;;;;;;;23.33;41.98;102313.50;5047229;28;19917;-71
2023/06/05 01:48:23;;;;;;;;;;;;;;;23.31;42.13;102320.09;5039831;28;19945;-71
2023/06/05 01:50:49;;;;;;;;;;;;;;;23.30;42.03;102318.41;5038668;28;19924;-71
2023/06/05 01:53:16;;;;;;;;;;;;;;;23.29;42.24;102317.56;5059275;28;19960;-71
2023/06/05 01:55:42;;;;;;;;;;;;;;;23.28;42.10;102315.00;5036112;28;20403;-71
2023/06/05 01:58:07;;;;;;;;;;;;;;;23.26;42.21;102311.59;5055227;28;19913;-70
2023/06/05 02:00:35;;;;;;;;;;;;;;;23.25;42.09;102304.50;5055723;28;19916;-71
2023/06/05 02:03:00;;;;;;;;;;;;;;;23.24;41.85;102309.06;5052008;28;19924;-70
2023/06/05 02:05:29;;;;;;;;;;;;;;;23.23;42.18;102303.78;5054436;28;19913;-70
2023/06/05 02:07:58;;;;;;;;;;;;;;;23.21;42.03;102309.38;5052958;28;19927;-70
2023/06/05 02:10:23;;;;;;;;;;;;;;;23.21;42.01;102309.38;5051508;28;19920;-71
2023/06/05 02:12:48;;;;;;;;;;;;;;;23.20;42.02;102310.41;5052109;28;20008;-72
2023/06/05 02:15:14;;;;;;;;;;;;;;;23.19;42.13;102314.09;5039289;28;19913;-71
2023/06/05 02:17:44;;;;;;;;;;;;;;;23.18;42.11;102309.72;5043151;28;19933;-71
2023/06/05 02:20:11;;;;;;;;;;;;;;;23.17;42.05;102308.00;5059474;28;20451;-71
2023/06/05 02:22:37;;;;;;;;;;;;;;;23.16;41.89;102309.03;5058668;28;20023;-71
2023/06/05 02:25:02;;;;;;;;;;;;;;;23.15;42.16;102308.19;5052426;28;20428;-72
2023/06/05 02:27:27;;;;;;;;;;;;;;;23.15;42.09;102308.19;5056766;28;19947;-72
2023/06/05 02:29:53;;;;;;;;;;;;;;;23.14;42.06;102306.47;5043441;28;19913;-72
2023/06/05 02:32:18;;;;;;;;;;;;;;;23.13;41.84;102302.06;5038101;28;19920;-72
2023/06/05 02:34:47;;;;;;;;;;;;;;;23.13;41.85;102298.50;5050195;28;19932;-72
2023/06/05 02:37:12;;;;;;;;;;;;;;;23.12;41.98;102303.06;5052048;28;19920;-71
2023/06/05 02:39:37;;;;;;;;;;;;;;;23.11;41.81;102301.38;5032998;28;19913;-71
2023/06/05 02:42:02;;;;;;;;;;;;;;;23.11;41.81;102300.53;5056169;28;19913;-71
2023/06/05 02:44:29;;;;;;;;;;;;;;;23.10;42.03;102304.25;5042754;28;19917;-71
2023/06/05 02:46:54;;;;;;;;;;;;;;;23.11;41.57;102308.69;5056251;28;19916;-72
2023/06/05 02:49:19;;;;;;;;;;;;;;;23.09;41.75;102306.09;5056226;28;19982;-71
2023/06/05 02:51:45;;;;;;;;;;;;;;;23.09;41.58;102307.97;5054025;28;20262;-71
2023/06/05 02:54:10;;;;;;;;;;;;;;;23.08;41.87;102299.00;5058487;28;19924;-71
2023/06/05 02:56:35;;;;;;;;;;;;;;;23.08;41.95;102298.16;5049753;28;19913;-71
2023/06/05 02:59:02;;;;;;;;;;;;;;;23.06;41.82;102295.56;5054394;28;19920;-71
2023/06/05 03:01:34;;;;;;;;;;;;;;;23.06;41.68;102294.72;5034653;28;19913;-71
2023/06/05 03:03:59;;;;;;;;;;;;;;;23.06;41.87;102292.00;5052936;28;20308;-71
2023/06/05 03:06:27;;;;;;;;;;;;;;;23.04;41.79;102292.19;5032791;28;20388;-71
2023/06/05 03:08:55;;;;;;;;;;;;;;;23.05;41.65;102290.31;5054592;28;19917;-70
2023/06/05 03:11:21;;;;;;;;;;;;;;;23.04;41.88;102284.06;5051136;28;19913;-71
2023/06/05 03:13:46;;;;;;;;;;;;;;;23.04;41.83;102292.19;5042736;28;19916;-71
2023/06/05 03:16:12;;;;;;;;;;;;;;;23.03;41.73;102289.66;5055478;28;19919;-71
2023/06/05 03:18:38;;;;;;;;;;;;;;;23.02;41.65;102280.63;5050742;28;19929;-71
2023/06/05 03:21:03;;;;;;;;;;;;;;;23.02;41.57;102282.50;5060269;28;20461;-71
2023/06/05 03:23:28;;;;;;;;;;;;;;;23.02;41.70;102285.22;5050964;28;19939;-71
2023/06/05 03:25:54;;;;;;;;;;;;;;;23.00;41.68;102279.97;5021656;28;19917;-71
2023/06/05 03:28:20;;;;;;;;;;;;;;;23.01;41.54;102280.81;5053912;28;19935;-71
2023/06/05 03:30:45;;;;;;;;;;;;;;;22.99;41.37;102277.41;5030468;28;20422;-71
2023/06/05 03:33:10;;;;;;;;;;;;;;;22.98;41.73;102279.28;5032872;28;19917;-71
2023/06/05 03:35:36;;;;;;;;;;;;;;;22.98;41.69;102265.72;5050973;28;19939;-72
2023/06/05 03:38:01;;;;;;;;;;;;;;;22.98;41.35;102264.84;5051183;28;19936;-71
2023/06/05 03:40:27;;;;;;;;;;;;;;;22.97;41.49;102276.72;5050667;28;19936;-71
2023/06/05 03:42:52;;;;;;;;;;;;;;;22.94;41.73;102267.91;5038263;28;19917;-71
2023/06/05 03:45:18;;;;;;;;;;;;;;;22.95;41.54;102268.75;5049896;28;20011;-71
2023/06/05 03:47:44;;;;;;;;;;;;;;;22.94;41.57;102273.34;5038672;28;20370;-71
2023/06/05 03:50:10;;;;;;;;;;;;;;;22.93;41.43;102266.19;5037832;28;19917;-71
2023/06/05 03:52:37;;;;;;;;;;;;;;;22.93;41.60;102276.19;5049984;28;19920;-71
2023/06/05 03:55:04;;;;;;;;;;;;;;;22.92;41.46;102269.91;5053571;28;19917;-71
2023/06/05 03:57:30;;;;;;;;;;;;;;;22.91;41.31;102268.22;5033325;28;19924;-71
2023/06/05 03:59:55;;;;;;;;;;;;;;;22.91;41.64;102270.09;5038670;28;19917;-71
2023/06/05 04:02:20;;;;;;;;;;;;;;;22.90;41.60;102269.25;5031899;28;20003;-71
2023/06/05 04:04:45;;;;;;;;;;;;;;;22.89;41.28;102278.34;5052225;28;19988;-71
2023/06/05 04:07:11;;;;;;;;;;;;;;;22.89;41.41;102280.22;5031978;28;19920;-72
2023/06/05 04:09:36;;;;;;;;;;;;;;;22.87;41.58;102272.25;5044898;28;19968;-72
2023/06/05 04:12:01;;;;;;;;;;;;;;;22.88;41.48;102278.50;5050431;28;19917;-72
2023/06/05 04:14:26;;;;;;;;;;;;;;;22.87;41.35;102282.25;5045315;28;20281;-71
2023/06/05 04:16:51;;;;;;;;;;;;;;;22.87;41.28;102282.25;5037011;28;20379;-71
2023/06/05 04:19:17;;;;;;;;;;;;;;;22.86;41.31;102284.09;5044278;28;19984;-71
2023/06/05 04:21:42;;;;;;;;;;;;;;;22.85;41.50;102282.41;5038021;28;20335;-71
2023/06/05 04:24:09;;;;;;;;;;;;;;;22.85;41.35;102289.66;5031461;28;19913;-71
2023/06/05 04:26:35;;;;;;;;;;;;;;;22.83;41.54;102287.13;5049252;28;20440;-71
2023/06/05 04:29:02;;;;;;;;;;;;;;;22.83;41.52;102287.13;5038554;28;19917;-72
2023/06/05 04:31:29;;;;;;;;;;;;;;;22.83;41.26;102289.00;5045471;28;19917;-72
2023/06/05 04:33:54;;;;;;;;;;;;;;;22.83;41.18;102289.00;5049827;28;19932;-72
2023/06/05 04:36:20;;;;;;;;;;;;;;;22.80;41.51;102292.03;5032959;28;19913;-72
2023/06/05 04:38:46;;;;;;;;;;;;;;;22.81;41.39;102297.31;5051228;28;19920;-71
2023/06/05 04:41:11;;;;;;;;;;;;;;;22.80;41.21;102290.16;5049689;28;19921;-70
2023/06/05 04:43:36;;;;;;;;;;;;;;;22.80;41.34;102292.03;5056894;28;19913;-70
2023/06/05 04:46:02;;;;;;;;;;;;;;;22.79;41.47;102298.47;5048195;28;19913;-71
2023/06/05 04:48:27;;;;;;;;;;;;;;;22.78;41.16;102294.91;5057034;28;19971;-71
2023/06/05 04:50:53;;;;;;;;;;;;;;;22.77;41.34;102304.06;5045609;28;19917;-71
2023/06/05 04:53:18;;;;;;;;;;;;;;;22.78;41.08;102294.06;5049104;28;19917;-71
2023/06/05 04:55:45;;;;;;;;;;;;;;;22.77;41.31;102297.75;5037126;28;19924;-71
2023/06/05 04:58:10;;;;;;;;;;;;;;;22.76;41.34;102288.78;5032399;28;19945;-71
2023/06/05 05:00:35;;;;;;;;;;;;;;;22.75;41.36;102295.22;5022374;28;19913;-72
2023/06/05 05:03:01;;;;;;;;;;;;;;;22.75;41.06;102297.09;5051822;28;19960;-71
2023/06/05 05:05:26;;;;;;;;;;;;;;;22.75;41.34;102299.78;5056391;28;19917;-71
2023/06/05 05:07:51;;;;;;;;;;;;;;;22.74;41.26;102306.25;5050701;28;19917;-71
2023/06/05 05:10:16;;;;;;;;;;;;;;;22.74;41.32;102300.81;5041994;28;19948;-71
2023/06/05 05:12:41;;;;;;;;;;;;;;;22.72;41.30;102295.53;5046790;28;19959;-71
2023/06/05 05:15:07;;;;;;;;;;;;;;;22.73;41.35;102297.25;5057436;28;19947;-71
2023/06/05 05:17:32;;;;;;;;;;;;;;;22.71;41.05;102301.97;5056693;28;19992;-71
2023/06/05 05:19:57;;;;;;;;;;;;;;;22.70;41.42;102293.00;5038501;28;19979;-71
2023/06/05 05:22:23;;;;;;;;;;;;;;;22.70;41.08;102301.13;5055730;28;19939;-71
2023/06/05 05:24:49;;;;;;;;;;;;;;;22.70;41.43;102297.56;5043008;28;19913;-71
2023/06/05 05:27:14;;;;;;;;;;;;;;;22.69;41.09;102296.72;5051688;28;19928;-71
2023/06/05 05:29:39;;;;;;;;;;;;;;;22.69;41.02;102296.72;5053247;28;19913;-71
2023/06/05 05:32:05;;;;;;;;;;;;;;;22.68;41.36;102295.03;5055766;28;19913;-71
2023/06/05 05:34:30;;;;;;;;;;;;;;;22.68;41.08;102292.31;5043902;28;19955;-71
2023/06/05 05:36:56;;;;;;;;;;;;;;;22.68;41.30;102297.75;5039477;28;19912;-70
2023/06/05 05:39:21;;;;;;;;;;;;;;;22.21;41.06;102222.19;5046534;28;19971;-71
2023/06/05 05:41:46;;;;;;;;;;;;;;;22.67;41.04;102301.44;5057331;28;20036;-71
2023/06/05 05:44:12;;;;;;;;;;;;;;;22.66;41.19;102301.59;5048082;28;20001;-71
2023/06/05 05:46:37;;;;;;;;;;;;;;;22.66;41.27;102304.31;5052326;28;20003;-71
2023/06/05 05:49:02;;;;;;;;;;;;;;;22.66;40.97;102304.31;5038483;28;20317;-70
2023/06/05 05:51:27;;;;;;;;;;;;;;;22.65;41.03;102306.19;5023615;28;19988;-71
2023/06/05 05:53:53;;;;;;;;;;;;;;;22.64;41.23;102312.63;5039718;28;19981;-70
2023/06/05 05:56:18;;;;;;;;;;;;;;;22.64;41.16;102315.34;5053355;28;19913;-70
2023/06/05 05:58:44;;;;;;;;;;;;;;;22.64;41.23;102315.34;5039674;28;19939;-71
2023/06/05 06:01:09;;;;;;;;;;;;;;;22.64;41.17;102309.91;5051122;28;19917;-71
2023/06/05 06:03:37;;;;;;;;;;;;;;;22.63;41.10;102312.75;5043987;28;19936;-71
2023/06/05 06:06:03;;;;;;;;;;;;;;;22.62;40.88;102314.63;5055624;28;19917;-71
2023/06/05 06:08:29;;;;;;;;;;;;;;;22.62;40.91;102313.78;5053490;28;19913;-72
2023/06/05 06:10:55;;;;;;;;;;;;;;;22.62;40.94;102309.22;5060007;28;19924;-70
2023/06/05 06:13:20;;;;;;;;;;;;;;;22.62;41.28;102302.94;5033960;28;20305;-71
2023/06/05 06:15:46;;;;;;;;;;;;;;;22.60;41.08;102304.94;5055222;28;20289;-70
2023/06/05 06:18:11;;;;;;;;;;;;;;;22.62;41.40;102305.66;5053893;28;19921;-70
2023/06/05 06:20:36;;;;;;;;;;;;;;;22.60;41.12;102305.81;5041660;28;19917;-71
2023/06/05 06:23:02;;;;;;;;;;;;;;;22.60;41.35;102305.81;5052647;28;19916;-71
2023/06/05 06:25:28;;;;;;;;;;;;;;;22.60;40.94;102313.94;5052236;28;19979;-71
2023/06/05 06:27:58;;;;;;;;;;;;;;;22.60;41.13;102310.38;5051596;28;19940;-71
2023/06/05 06:30:23;;;;;;;;;;;;;;;22.60;40.88;102316.66;5043368;28;19913;-71
2023/06/05 06:32:49;;;;;;;;;;;;;;;22.59;40.93;102316.81;5056716;28;19963;-70
2023/06/05 06:35:14;;;;;;;;;;;;;;;22.59;41.32;102306.81;5050181;28;19974;-71
2023/06/05 06:37:40;;;;;;;;;;;;;;;22.59;41.35;102301.38;5058905;28;20333;-71
2023/06/05 06:40:10;;;;;;;;;;;;;;;22.59;41.26;102301.38;5039090;28;19956;-71
2023/06/05 06:42:36;;;;;;;;;;;;;;;22.59;40.96;102305.97;5055450;28;19949;-72
2023/06/05 06:45:01;;;;;;;;;;;;;;;22.59;41.18;102308.66;5044511;28;19952;-71
2023/06/05 06:47:26;;;;;;;;;;;;;;;22.59;41.31;102311.38;5051620;28;19912;-71
2023/06/05 06:49:52;;;;;;;;;;;;;;;22.59;41.18;102306.81;5057676;28;19920;-71
2023/06/05 06:52:19;;;;;;;;;;;;;;;22.58;41.13;102318.66;5050324;28;19921;-71
2023/06/05 06:54:45;;;;;;;;;;;;;;;22.58;41.24;102313.25;5035055;28;19921;-71
2023/06/05 06:57:10;;;;;;;;;;;;;;;22.58;41.17;102312.41;5050680;28;19917;-71
2023/06/05 06:59:35;;;;;;;;;;;;;;;22.58;41.24;102317.81;5054230;28;19959;-71
2023/06/05 07:02:11;;;;;;;;;;;;;;;22.57;41.23;102316.97;5032098;28;19914;-70
2023/06/05 07:04:36;;;;;;;;;;;;;;;22.58;41.24;102323.25;5057261;28;19935;-71
2023/06/05 07:07:01;;;;;;;;;;;;;;;22.57;41.15;102313.41;5037034;28;19917;-71
2023/06/05 07:09:27;;;;;;;;;;;;;;;22.57;41.09;102316.13;5034338;28;19913;-70
2023/06/05 07:11:53;;;;;;;;;;;;;;;22.58;41.23;102317.81;5039303;28;19913;-71
2023/06/05 07:14:19;;;;;;;;;;;;;;;22.57;41.40;102310.69;5051108;28;19928;-70
2023/06/05 07:16:44;;;;;;;;;;;;;;;22.57;41.20;102316.13;5050865;28;19917;-71
2023/06/05 07:19:09;;;;;;;;;;;;;;;22.56;41.44;102318.00;5035109;28;19925;-72
2023/06/05 07:21:37;;;;;;;;;;;;;;;22.56;41.31;102322.56;5051844;28;20374;-71
2023/06/05 07:24:03;;;;;;;;;;;;;;;22.55;41.47;102318.97;5050550;28;20407;-72
2023/06/05 07:26:29;;;;;;;;;;;;;;;22.56;41.48;102314.44;5051617;28;19917;-71
2023/06/05 07:28:54;;;;;;;;;;;;;;;22.54;41.31;102320.00;5050451;28;19917;-71
2023/06/05 07:31:21;;;;;;;;;;;;;;;22.53;41.45;102315.59;5053209;28;19916;-71
2023/06/05 07:33:46;;;;;;;;;;;;;;;22.53;41.60;102321.00;5046058;28;19923;-71
2023/06/05 07:36:11;;;;;;;;;;;;;;;22.54;41.41;102324.56;5050951;28;19944;-71
2023/06/05 07:38:38;;;;;;;;;;;;;;;22.53;41.26;102325.59;5041621;28;19987;-71
2023/06/05 07:41:03;;;;;;;;;;;;;;;22.53;41.46;102315.59;5038999;28;19917;-71
2023/06/05 07:43:28;;;;;;;;;;;;;;;22.52;41.57;102322.03;5041730;28;19917;-71
2023/06/05 07:45:54;;;;;;;;;;;;;;;22.52;41.41;102322.03;5039403;28;19913;-71
2023/06/05 07:48:19;;;;;;;;;;;;;;;22.52;41.75;102321.19;5033468;28;19920;-71
2023/06/05 07:50:44;;;;;;;;;;;;;;;22.52;41.60;102323.88;5053684;28;20007;-71
2023/06/05 07:53:09;;;;;;;;;;;;;;;22.52;41.54;102324.75;5050626;28;19917;-71
2023/06/05 07:55:35;;;;;;;;;;;;;;;22.53;41.46;102328.28;5050938;28;19913;-70
2023/06/05 07:58:00;;;;;;;;;;;;;;;22.52;41.72;102327.44;5049642;28;19980;-71
2023/06/05 08:00:26;;;;;;;;;;;;;;;22.54;41.56;102329.97;5056271;28;19952;-71
2023/06/05 08:02:53;;;;;;;;;;;;;;;22.53;41.75;102320.16;5031452;28;20000;-72
2023/06/05 08:05:19;;;;;;;;;;;;;;;22.54;41.77;102319.16;5041818;28;19953;-71
2023/06/05 08:07:44;;;;;;;;;;;;;;;22.53;41.74;102315.59;5034471;28;20440;-71
2023/06/05 08:10:09;;;;;;;;;;;;;;;22.54;41.50;102313.72;5046893;28;19927;-71
2023/06/05 08:12:34;;;;;;;;;;;;;;;22.54;41.87;102309.16;5053974;28;19916;-71
2023/06/05 08:15:00;;;;;;;;;;;;;;;22.55;41.49;102315.41;5050267;28;19921;-71
2023/06/05 08:17:25;;;;;;;;;;;;;;;22.55;41.47;102307.28;5049372;28;19963;-72
2023/06/05 08:19:50;;;;;;;;;;;;;;;22.56;41.74;102309.00;5050122;28;20289;-72
2023/06/05 08:22:15;;;;;;;;;;;;;;;22.55;41.77;102301.88;5052509;28;19920;-72
2023/06/05 08:24:41;;;;;;;;;;;;;;;22.54;41.86;102298.31;5049528;28;19963;-72
2023/06/05 08:27:07;;;;;;;;;;;;;;;22.55;41.84;102301.88;5037998;28;20358;-72
2023/06/05 08:29:36;;;;;;;;;;;;;;;22.55;41.68;102297.28;5050569;28;20020;-72
2023/06/05 08:32:01;;;;;;;;;;;;;;;22.55;41.89;102296.44;5058077;28;19917;-71
2023/06/05 08:34:26;;;;;;;;;;;;;;;22.55;41.76;102291.03;5053685;28;20444;-71
2023/06/05 08:36:51;;;;;;;;;;;;;;;22.54;41.52;102290.19;5048586;28;19916;-71
2023/06/05 08:39:17;;;;;;;;;;;;;;;22.54;41.69;102289.31;5053719;28;19964;-71
2023/06/05 08:41:42;;;;;;;;;;;;;;;22.54;41.75;102278.50;5050047;28;19912;-71
2023/06/05 08:44:07;;;;;;;;;;;;;;;22.53;41.85;102288.47;5050898;28;20374;-71
2023/06/05 08:46:32;;;;;;;;;;;;;;;22.54;41.77;102283.91;5031853;28;19917;-71
2023/06/05 08:48:58;;;;;;;;;;;;;;;22.54;41.72;102284.75;5044390;28;19916;-71
2023/06/05 08:51:23;;;;;;;;;;;;;;;22.53;41.62;102274.94;5044953;28;19971;-72
2023/06/05 08:53:53;;;;;;;;;;;;;;;22.54;41.99;102287.47;5053966;28;19922;-71
2023/06/05 08:56:18;;;;;;;;;;;;;;;22.54;41.65;102286.63;5050852;28;19920;-71
2023/06/05 08:58:43;;;;;;;;;;;;;;;22.54;42.07;102282.03;5042046;28;19917;-71
2023/06/05 09:01:09;;;;;;;;;;;;;;;22.55;41.92;102285.59;5027615;28;19917;-71
2023/06/05 09:03:34;;;;;;;;;;;;;;;22.55;41.69;102285.59;5047926;28;20026;-71
2023/06/05 09:06:00;;;;;;;;;;;;;;;22.55;41.83;102281.03;5055219;28;19928;-71
2023/06/05 09:08:32;;;;;;;;;;;;;;;22.55;41.76;102272.03;5050042;28;19913;-72
2023/06/05 09:11:16;;;;;;;;;;;;;;;22.55;41.77;102272.91;5049508;28;19952;-71
2023/06/05 09:13:45;;;;;;;;;;;;;;;22.55;42.08;102278.31;5050082;28;19917;-72
2023/06/05 09:16:10;;;;;;;;;;;;;;;22.55;41.74;102278.31;5033928;28;19917;-71
2023/06/05 09:18:36;;;;;;;;;;;;;;;22.56;41.71;102276.47;5049388;28;19956;-71
2023/06/05 09:21:11;;;;;;;;;;;;;;;22.56;41.69;102269.19;5040261;28;19947;-71
2023/06/05 09:23:36;;;;;;;;;;;;;;;22.56;41.96;102265.63;5049491;28;19951;-71
2023/06/05 09:26:03;;;;;;;;;;;;;;;22.57;41.79;102267.34;5041256;28;19913;-71
2023/06/05 09:28:28;;;;;;;;;;;;;;;22.56;41.89;102269.19;5055313;28;19917;-71
2023/06/05 09:30:55;;;;;;;;;;;;;;;22.57;42.01;102267.34;5051270;28;19923;-71
2023/06/05 09:33:21;;;;;;;;;;;;;;;22.57;42.19;102260.03;5036854;28;19939;-71
2023/06/05 09:35:46;;;;;;;;;;;;;;;22.57;42.11;102261.91;5053817;28;19913;-71
2023/06/05 09:38:27;;;;;;;;;;;;;;;22.58;42.15;102258.19;5035215;28;19917;-71
2023/06/05 09:40:52;;;;;;;;;;;;;;;22.58;41.99;102253.59;5037944;28;19917;-71
2023/06/05 09:43:20;;;;;;;;;;;;;;;22.58;42.23;102256.31;5044932;28;19967;-71
2023/06/05 09:45:45;;;;;;;;;;;;;;;22.58;42.16;102261.75;5020677;28;19927;-71
2023/06/05 09:48:14;;;;;;;;;;;;;;;22.60;42.34;102264.28;5037222;28;19913;-71
2023/06/05 09:50:40;;;;;;;;;;;;;;;22.60;42.04;102253.44;5037546;28;20005;-71
2023/06/05 09:53:06;;;;;;;;;;;;;;;22.59;42.02;102258.00;5054123;28;19916;-71
2023/06/05 09:55:31;;;;;;;;;;;;;;;22.60;42.42;102254.31;5030509;28;20293;-71
2023/06/05 09:57:57;;;;;;;;;;;;;;;22.61;42.41;102255.16;5052029;28;19917;-71
2023/06/05 10:00:22;;;;;;;;;;;;;;;22.60;42.21;102248.91;5041839;28;20007;-71
2023/06/05 10:02:47;;;;;;;;;;;;;;;22.61;42.46;102247.88;5044833;28;20416;-71
2023/06/05 10:05:13;;;;;;;;;;;;;;;22.62;42.23;102246.00;5022335;28;19916;-72
2023/06/05 10:07:41;;;;;;;;;;;;;;;22.62;42.22;102246.84;5048021;28;19917;-71
2023/06/05 10:10:06;;;;;;;;;;;;;;;22.64;42.54;102243.97;5034951;28;19913;-71
2023/06/05 10:12:32;;;;;;;;;;;;;;;22.63;42.58;102234.16;5052433;28;19956;-71
2023/06/05 10:14:57;;;;;;;;;;;;;;;22.65;42.54;102243.00;5039924;28;19917;-70
2023/06/05 10:17:23;;;;;;;;;;;;;;;22.65;42.31;102224.00;5035926;28;19921;-71
2023/06/05 10:19:48;;;;;;;;;;;;;;;22.66;42.51;102231.13;5051910;28;19913;-70
2023/06/05 10:22:16;;;;;;;;;;;;;;;22.66;42.33;102228.41;5057921;28;19923;-71
2023/06/05 10:24:45;;;;;;;;;;;;;;;22.67;42.37;102230.94;5045229;28;19913;-71
2023/06/05 10:27:11;;;;;;;;;;;;;;;22.66;42.68;102229.25;5057390;28;20393;-71
2023/06/05 10:29:55;;;;;;;;;;;;;;;22.68;42.44;102229.09;5055647;28;19912;-72
2023/06/05 10:32:20;;;;;;;;;;;;;;;22.69;42.55;102231.66;5053691;28;19921;-72
2023/06/05 10:34:48;;;;;;;;;;;;;;;22.70;42.40;102233.34;5057228;28;19925;-70
2023/06/05 10:37:32;;;;;;;;;;;;;;;22.70;42.75;102232.50;5036652;28;19977;-71
2023/06/05 10:39:57;;;;;;;;;;;;;;;22.71;42.81;102221.47;5054120;28;19984;-71
2023/06/05 10:42:23;;;;;;;;;;;;;;;22.73;42.59;102220.50;5053439;28;19913;-71
2023/06/05 10:44:49;;;;;;;;;;;;;;;22.75;42.84;102223.88;5053055;28;19936;-71
2023/06/05 10:47:32;;;;;;;;;;;;;;;22.76;42.75;102225.56;5032918;28;19920;-71
2023/06/05 10:50:19;;;;;;;;;;;;;;;22.78;42.42;102212.72;5041241;28;20264;-71
2023/06/05 10:52:45;;;;;;;;;;;;;;;22.79;42.54;102225.25;5045529;28;19917;-71
2023/06/05 10:55:12;;;;;;;;;;;;;;;22.80;42.86;102216.94;5041160;28;20270;-71
2023/06/05 10:57:56;;;;;;;;;;;;;;;22.83;42.63;102221.19;5052720;28;19913;-71
2023/06/05 11:00:21;;;;;;;;;;;;;;;22.85;42.85;102211.91;5053805;28;20737;-72
2023/06/05 11:02:47;;;;;;;;;;;;;;;22.86;42.94;102210.88;5039772;28;19921;-72
2023/06/05 11:05:12;;;;;;;;;;;;;;;22.87;42.82;102215.28;5033652;28;19915;-70
2023/06/05 11:07:37;;;;;;;;;;;;;;;22.89;42.94;102213.25;5034143;28;19913;-71
2023/06/05 11:10:06;;;;;;;;;;;;;;;22.91;42.84;102205.00;5033939;28;19912;-71
2023/06/05 11:12:40;;;;;;;;;;;;;;;22.93;42.79;102211.09;5051275;28;20008;-71
2023/06/05 11:15:09;;;;;;;;;;;;;;;22.94;42.65;102205.53;5052551;28;19921;-71
2023/06/05 11:17:35;;;;;;;;;;;;;;;22.97;42.56;102203.47;5042336;28;19925;-71
2023/06/05 11:20:06;;;;;;;;;;;;;;;22.99;42.70;102198.75;5034190;28;19913;-72
2023/06/05 11:22:32;;;;;;;;;;;;;;;23.00;42.63;102203.16;5057817;28;19917;-72
2023/06/05 11:25:16;;;;;;;;;;;;;;;23.02;42.89;102201.97;5044746;28;19920;-72
2023/06/05 11:27:43;;;;;;;;;;;;;;;23.03;42.84;102192.84;5045598;28;19912;-71
2023/06/05 11:30:11;;;;;;;;;;;;;;;23.04;42.75;102193.69;5053135;28;19913;-71
2023/06/05 11:32:36;;;;;;;;;;;;;;;23.06;42.69;102186.22;5036042;28;19913;-71
2023/06/05 11:35:02;;;;;;;;;;;;;;;23.07;42.93;102188.78;5051385;28;19921;-71
2023/06/05 11:37:27;;;;;;;;;;;;;;;23.08;42.81;102190.47;5032829;28;19913;-71
2023/06/05 11:39:52;;;;;;;;;;;;;;;23.10;43.03;102191.16;5034150;28;19913;-71
2023/06/05 11:42:21;;;;;;;;;;;;;;;23.12;42.97;102199.13;5049894;28;19913;-71
2023/06/05 11:44:46;;;;;;;;;;;;;;;23.13;42.92;102185.41;5037269;28;19913;-71
2023/06/05 11:47:24;;;;;;;;;;;;;;;23.15;42.80;102186.09;5049868;28;19998;-71
2023/06/05 11:49:49;;;;;;;;;;;;;;;23.17;43.10;102191.34;5057868;28;19913;-71
2023/06/05 11:52:18;;;;;;;;;;;;;;;23.18;42.75;102184.91;5028790;28;19915;-71
2023/06/05 11:54:52;;;;;;;;;;;;;;;23.19;42.78;102179.31;5055953;28;19917;-73
2023/06/05 11:57:18;;;;;;;;;;;;;;;23.21;42.96;102181.84;5052166;28;19917;-71
2023/06/05 11:59:43;;;;;;;;;;;;;;;23.22;43.03;102164.56;5047077;28;19968;-71
2023/06/05 12:02:08;;;;;;;;;;;;;;;23.24;42.81;102173.41;5040597;28;19940;-71
2023/06/05 12:04:34;;;;;;;;;;;;;;;23.26;43.14;102167.78;5050844;28;19913;-71
2023/06/05 12:07:01;;;;;;;;;;;;;;;23.26;43.18;102168.63;5030750;28;19917;-71
2023/06/05 12:09:26;;;;;;;;;;;;;;;23.29;42.83;102173.72;5050821;28;19913;-72
2023/06/05 12:11:51;;;;;;;;;;;;;;;23.30;42.94;102170.00;5053544;28;19913;-72
2023/06/05 12:14:30;;;;;;;;;;;;;;;23.31;43.12;102162.69;5050689;28;19925;-71
2023/06/05 12:16:55;;;;;;;;;;;;;;;23.34;42.87;102162.38;5054214;28;19931;-71
2023/06/05 12:19:20;;;;;;;;;;;;;;;23.35;43.03;102164.06;5052473;28;19980;-72
2023/06/05 12:21:46;;;;;;;;;;;;;;;23.36;42.90;102163.91;5053153;28;19996;-72
2023/06/05 12:24:12;;;;;;;;;;;;;;;23.39;43.17;102162.72;5053007;28;20550;-72
2023/06/05 12:26:53;;;;;;;;;;;;;;;23.39;43.06;102160.00;5050609;28;19935;-72
2023/06/05 12:29:20;;;;;;;;;;;;;;;23.42;43.12;102151.53;5024086;28;19936;-72
2023/06/05 12:31:45;;;;;;;;;;;;;;;23.43;43.19;102155.94;5051414;28;19942;-72